Terminal Aerodrome Forecast
Issued by NWS Shreveport, LA

Home | Current Version | Previous Version | Text Only | Print | Product List | Glossary On
Versions: 1 2 3 4 5 6 7 8 9 10 11 12 13 14 15 16 17
625
FTUS44 KSHV 261137
TAFTXK
TAF
KTXK 261137Z 2612/2712 18013G17KT P6SM BKN015
     FM262100 19017G24KT P6SM OVC040
     FM270000 19012KT P6SM OVC040
     FM270400 18007KT P6SM OVC015=

USA.gov is the U.S. government's official web portal to all federal, state and local government web resources and services.